Time;durP1;ratioP1;P1;durP2;ratioP2;P2;SDS_P1;SDS_P2;PMS_P1;PMS_P2;Temp;Humidity;BMP_temperature;BMP_pressure;BME280_temperature;BME280_humidity;BME280_pressure;Samples;Min_cycle;Max_cycle;Signal;HPM_P1;HPM_P2
2021/03/03 00:00:54;;;;;;;18.65;10.65;;;;;;;5.66;47.63;96007.75;5138408;23;20115;-69
2021/03/03 00:02:56;;;;;;;15.60;9.73;;;;;;;5.60;47.82;96016.75;5138253;23;20025;-70
2021/03/03 00:04:57;;;;;;;13.70;10.15;;;;;;;5.64;48.04;96018.22;5140151;23;20025;-70
2021/03/03 00:06:59;;;;;;;16.42;10.35;;;;;;;5.61;47.67;96014.97;5111963;23;20059;-72
2021/03/03 00:09:00;;;;;;;19.27;10.48;;;;;;;5.65;47.99;96017.28;5139022;23;20021;-71
2021/03/03 00:11:01;;;;;;;14.52;9.63;;;;;;;5.66;47.99;96016.38;5113395;23;20024;-70
2021/03/03 00:13:03;;;;;;;15.43;9.75;;;;;;;5.68;47.75;96024.06;5091582;23;20080;-84
2021/03/03 00:15:05;;;;;;;13.73;9.35;;;;;;;5.64;48.11;96018.22;5116729;23;20447;-82
2021/03/03 00:17:06;;;;;;;13.85;8.93;;;;;;;5.65;48.02;96014.69;5141981;23;20357;-86
2021/03/03 00:19:08;;;;;;;17.42;9.57;;;;;;;5.47;47.86;96018.44;5117050;23;20658;-85
2021/03/03 00:21:09;;;;;;;16.63;9.38;;;;;;;5.48;48.37;96022.69;5138080;23;20047;-83
2021/03/03 00:23:10;;;;;;;14.45;9.82;;;;;;;5.47;48.20;96006.28;5092320;23;20034;-84
2021/03/03 00:25:11;;;;;;;14.05;8.75;;;;;;;5.44;48.49;96008.22;5118107;23;20420;-83
2021/03/03 00:27:13;;;;;;;14.27;9.68;;;;;;;5.46;48.11;96011.56;5117614;23;20035;-84
2021/03/03 00:29:14;;;;;;;15.18;9.43;;;;;;;5.56;48.16;96009.25;5118262;23;20088;-86
2021/03/03 00:31:15;;;;;;;16.23;9.75;;;;;;;5.56;47.87;96011.84;5091585;23;20461;-83
2021/03/03 00:33:17;;;;;;;13.02;8.55;;;;;;;5.56;48.30;96012.66;5119308;23;20469;-84
2021/03/03 00:35:18;;;;;;;14.20;9.35;;;;;;;5.62;48.11;96011.47;5123132;23;20031;-85
2021/03/03 00:37:19;;;;;;;13.52;9.25;;;;;;;5.52;48.63;96009.41;5119778;23;20095;-84
2021/03/03 00:39:21;;;;;;;16.35;8.82;;;;;;;5.52;48.71;96006.81;5094203;23;20029;-83
2021/03/03 00:41:23;;;;;;;15.20;8.82;;;;;;;5.58;48.16;96010.81;5120212;23;20358;-87
2021/03/03 00:43:24;;;;;;;16.35;8.75;;;;;;;5.59;48.50;96019.44;5119063;23;20028;-83
2021/03/03 00:45:25;;;;;;;14.27;8.93;;;;;;;5.52;48.94;96009.41;5091518;23;20035;-84
2021/03/03 00:47:30;;;;;;;13.25;8.20;;;;;;;5.45;48.73;96002.94;5117820;23;20459;-85
2021/03/03 00:49:32;;;;;;;15.32;8.88;;;;;;;5.52;48.99;95998.19;5117663;23;20052;-84
2021/03/03 00:51:33;;;;;;;14.27;8.98;;;;;;;5.50;48.46;95994.84;5117275;23;20067;-84
2021/03/03 00:53:35;;;;;;;13.48;8.80;;;;;;;5.45;48.91;95991.72;5117252;23;20025;-85
2021/03/03 00:55:36;;;;;;;16.05;9.05;;;;;;;5.47;48.65;95995.06;5117813;23;20021;-83
2021/03/03 00:57:39;;;;;;;13.50;8.48;;;;;;;5.50;48.79;95997.44;5098260;23;20025;-82
2021/03/03 00:59:40;;;;;;;17.42;9.55;;;;;;;5.42;49.08;96004.88;5081339;23;20022;-84
2021/03/03 01:01:41;;;;;;;13.63;9.00;;;;;;;5.43;49.14;95996.19;5117482;23;20024;-82
2021/03/03 01:03:43;;;;;;;16.08;9.65;;;;;;;5.41;49.55;95996.25;5118507;23;20032;-84
2021/03/03 01:05:44;;;;;;;13.88;8.48;;;;;;;5.41;49.06;95998.88;5091846;23;20022;-86
2021/03/03 01:07:45;;;;;;;15.02;8.65;;;;;;;5.37;48.91;95993.97;5117510;23;20083;-86
2021/03/03 01:09:46;;;;;;;13.38;9.18;;;;;;;5.36;49.33;95998.31;5117186;23;20028;-83
2021/03/03 01:11:47;;;;;;;12.68;8.93;;;;;;;5.38;49.30;96000.81;5067705;23;20480;-85
2021/03/03 01:13:49;;;;;;;13.27;8.02;;;;;;;5.35;49.61;95999.25;5118351;23;20025;-85
2021/03/03 01:15:50;;;;;;;13.73;9.23;;;;;;;5.39;49.91;95994.69;5090917;23;20036;-84
2021/03/03 01:17:54;;;;;;;12.70;8.70;;;;;;;5.40;49.66;95999.81;5091289;23;20029;-87
2021/03/03 01:19:56;;;;;;;16.10;9.07;;;;;;;5.37;49.50;95993.97;5118166;23;20028;-82
2021/03/03 01:21:57;;;;;;;15.25;9.02;;;;;;;5.39;49.33;95997.28;5117726;23;20025;-83
2021/03/03 01:23:58;;;;;;;14.40;8.55;;;;;;;5.42;49.42;95991.91;5092073;23;20407;-84
2021/03/03 01:25:59;;;;;;;14.27;9.10;;;;;;;5.49;49.41;95999.22;5093663;23;20026;-83
2021/03/03 01:28:03;;;;;;;;;;;;;;;5.53;49.54;95989.47;5093472;23;20029;-84
2021/03/03 01:30:05;;;;;;;14.38;8.75;;;;;;;5.54;48.82;95991.13;5116676;23;19923;-85
2021/03/03 01:32:06;;;;;;;13.55;9.25;;;;;;;5.48;49.43;95999.31;5090840;23;20031;-83
2021/03/03 01:34:08;;;;;;;14.00;8.85;;;;;;;5.41;49.45;95993.66;5118716;23;20053;-84
2021/03/03 01:36:09;;;;;;;12.88;8.82;;;;;;;5.50;49.68;96000.88;5118227;23;20017;-84
2021/03/03 01:38:10;;;;;;;14.38;9.07;;;;;;;5.59;49.12;95991.66;5119616;23;20027;-87
2021/03/03 01:40:12;;;;;;;11.68;8.20;;;;;;;5.60;49.60;95998.56;5118365;23;20083;-85
2021/03/03 01:42:13;;;;;;;13.38;8.93;;;;;;;5.60;48.98;95998.56;5093164;23;20216;-86
2021/03/03 01:44:14;;;;;;;14.27;9.05;;;;;;;5.57;49.25;96001.34;5094862;23;20558;-85
2021/03/03 01:46:15;;;;;;;14.52;9.27;;;;;;;5.53;49.03;95995.50;5119097;23;20025;-83
2021/03/03 01:48:17;;;;;;;15.10;8.90;;;;;;;5.61;48.92;96000.19;5094702;23;20124;-87
2021/03/03 01:50:18;;;;;;;14.32;9.20;;;;;;;5.66;49.16;96011.16;5069352;23;20033;-84
2021/03/03 01:52:20;;;;;;;16.40;9.38;;;;;;;5.63;49.20;96006.16;5118957;23;20521;-83
2021/03/03 01:54:21;;;;;;;15.32;9.15;;;;;;;5.43;49.99;96009.19;5092948;23;20025;-84
2021/03/03 01:56:22;;;;;;;16.40;8.70;;;;;;;5.38;50.22;96012.06;5068530;23;20078;-84
2021/03/03 01:58:24;;;;;;;14.32;8.82;;;;;;;5.41;49.82;96005.84;5096529;23;20100;-83
2021/03/03 02:00:25;;;;;;;13.07;8.55;;;;;;;5.47;49.97;96000.25;5122274;23;20021;-86
2021/03/03 02:02:26;;;;;;;13.18;8.40;;;;;;;5.38;50.21;96004.25;5119388;23;20040;-85
2021/03/03 02:04:28;;;;;;;15.82;9.07;;;;;;;5.37;49.92;95999.16;5119166;23;20025;-84
2021/03/03 02:06:45;;;;;;;17.70;9.02;;;;;;;5.41;49.73;96006.66;5121226;23;20053;-83
2021/03/03 02:08:56;;;;;;;14.52;8.57;;;;;;;5.22;50.82;95991.38;5092214;23;20026;-84
2021/03/03 02:11:06;;;;;;;14.35;9.15;;;;;;;5.32;50.61;95989.88;5068567;23;20506;-83
2021/03/03 02:13:27;;;;;;;14.15;9.18;;;;;;;5.30;50.50;95998.69;5127954;23;20072;-82
2021/03/03 02:15:30;;;;;;;17.92;9.43;;;;;;;5.34;50.70;96008.81;5105669;23;20486;-84
2021/03/03 02:17:32;;;;;;;15.07;9.88;;;;;;;5.31;50.69;95996.03;5097524;23;20029;-84
2021/03/03 02:19:36;;;;;;;14.88;9.57;;;;;;;5.22;50.67;96012.16;5098264;23;20060;-84
2021/03/03 02:21:39;;;;;;;14.90;9.32;;;;;;;5.07;51.20;96013.09;5109625;23;20025;-85
2021/03/03 02:24:07;;;;;;;16.02;9.40;;;;;;;4.97;51.39;96018.03;5100711;23;20053;-84
2021/03/03 02:26:08;;;;;;;17.05;10.05;;;;;;;4.72;52.07;96021.25;5118474;23;20020;-84
2021/03/03 02:28:11;;;;;;;17.92;10.65;;;;;;;4.48;52.69;96019.16;5153688;23;20020;-80
2021/03/03 02:30:13;;;;;;;16.38;10.45;;;;;;;4.26;53.85;96027.34;5147004;23;20027;-84
2021/03/03 02:32:18;;;;;;;16.98;10.30;;;;;;;4.11;54.67;96033.41;5091714;23;20667;-83
2021/03/03 02:34:22;;;;;;;18.58;10.80;;;;;;;4.11;54.65;96025.63;5115963;23;20021;-83
2021/03/03 02:36:23;;;;;;;16.73;10.63;;;;;;;4.14;54.17;96022.84;5116692;23;20529;-85
2021/03/03 02:38:25;;;;;;;17.77;10.05;;;;;;;4.11;54.50;96028.22;5117061;23;20029;-84
2021/03/03 02:40:27;;;;;;;18.20;10.55;;;;;;;4.13;54.53;96035.91;5117225;23;20025;-85
2021/03/03 02:42:29;;;;;;;16.73;10.05;;;;;;;4.25;54.00;96033.44;5117220;23;20025;-83
2021/03/03 02:44:32;;;;;;;14.70;9.93;;;;;;;4.31;54.29;96040.06;5116430;23;20513;-83
2021/03/03 02:46:33;;;;;;;16.67;10.20;;;;;;;4.27;54.48;96034.19;5115687;23;20075;-85
2021/03/03 02:48:35;;;;;;;21.13;10.50;;;;;;;4.14;54.81;96035.00;5116688;23;20025;-84
2021/03/03 02:50:36;;;;;;;15.68;9.90;;;;;;;4.10;54.96;96032.56;5092399;23;20044;-84
2021/03/03 02:52:46;;;;;;;17.73;10.75;;;;;;;4.03;55.17;96035.59;5142677;23;20100;-83
2021/03/03 02:54:48;;;;;;;22.08;11.60;;;;;;;3.89;55.51;96031.16;5142879;23;20458;-83
2021/03/03 02:56:49;;;;;;;19.63;11.55;;;;;;;3.87;55.88;96036.47;5144413;23;20462;-83
2021/03/03 02:58:51;;;;;;;17.02;10.35;;;;;;;3.95;55.67;96036.03;5095154;23;20501;-83
2021/03/03 03:00:57;;;;;;;17.45;10.85;;;;;;;3.92;55.86;96033.63;5120655;23;20120;-83
2021/03/03 03:03:16;;;;;;;19.20;11.25;;;;;;;3.88;56.26;96032.09;5119443;23;20029;-84
2021/03/03 03:05:18;;;;;;;17.80;10.60;;;;;;;3.91;56.04;96037.09;5136640;23;20016;-84
2021/03/03 03:07:21;;;;;;;17.33;10.95;;;;;;;3.80;56.49;96040.31;5164372;22;20009;-85
2021/03/03 03:09:23;;;;;;;19.45;10.93;;;;;;;3.75;56.20;96031.13;5104152;23;20029;-83
2021/03/03 03:11:26;;;;;;;24.60;11.13;;;;;;;3.74;56.20;96029.44;5116858;23;20351;-83
2021/03/03 03:13:29;;;;;;;19.92;11.48;;;;;;;3.83;56.21;96034.09;5117484;23;20025;-84
2021/03/03 03:15:31;;;;;;;21.70;11.20;;;;;;;3.71;56.46;96034.81;5113702;23;20027;-71
2021/03/03 03:17:32;;;;;;;17.33;10.80;;;;;;;3.75;56.03;96036.31;5111952;23;20251;-70
2021/03/03 03:19:41;;;;;;;20.17;11.50;;;;;;;3.45;56.89;96031.88;5113296;23;20156;-69
2021/03/03 03:21:45;;;;;;;24.50;11.50;;;;;;;3.41;56.83;96038.97;5112820;23;20492;-71
2021/03/03 03:23:46;;;;;;;;;;;;;;;3.17;57.90;96051.47;5088754;23;20022;-70
2021/03/03 03:25:47;;;;;;;19.45;12.00;;;;;;;3.11;58.35;96050.97;5137207;23;19999;-71
2021/03/03 03:27:49;;;;;;;22.95;12.25;;;;;;;3.01;58.81;96048.00;5112151;23;20025;-70
2021/03/03 03:29:50;;;;;;;22.77;12.70;;;;;;;3.19;58.76;96052.22;5140397;23;20020;-70
2021/03/03 03:31:57;;;;;;;25.17;12.80;;;;;;;3.35;57.99;96049.66;5111718;23;20689;-69
2021/03/03 03:33:58;;;;;;;24.80;13.07;;;;;;;3.44;57.95;96058.69;5139199;23;20025;-71
2021/03/03 03:36:04;;;;;;;26.30;13.38;;;;;;;3.55;57.53;96056.38;5112331;23;20088;-72
2021/03/03 03:38:05;;;;;;;26.58;14.10;;;;;;;3.51;57.70;96054.88;5113210;23;20077;-70
2021/03/03 03:40:07;;;;;;;28.02;14.95;;;;;;;3.53;57.42;96058.22;5112875;23;20430;-72
2021/03/03 03:42:09;;;;;;;27.20;14.75;;;;;;;3.49;58.00;96051.53;5112321;23;20028;-70
2021/03/03 03:44:12;;;;;;;29.35;15.88;;;;;;;3.56;57.86;96052.84;5087105;23;20056;-70
2021/03/03 03:46:14;;;;;;;25.90;14.25;;;;;;;3.70;57.11;96054.72;5111025;23;20124;-71
2021/03/03 03:48:16;;;;;;;24.13;14.18;;;;;;;3.77;57.36;96057.78;5112111;23;20249;-71
2021/03/03 03:50:19;;;;;;;25.77;14.80;;;;;;;3.86;57.01;96054.69;5112654;23;20025;-69
2021/03/03 03:52:21;;;;;;;27.77;14.18;;;;;;;3.89;56.87;96054.50;5138773;23;20128;-71
2021/03/03 03:54:22;;;;;;;26.55;13.85;;;;;;;3.93;56.87;96050.00;5112397;23;20450;-71
2021/03/03 03:56:24;;;;;;;20.65;12.75;;;;;;;4.00;56.24;96052.19;5138783;23;20020;-70
2021/03/03 03:58:25;;;;;;;21.13;12.88;;;;;;;4.10;56.31;96050.72;5140033;23;20024;-71
2021/03/03 04:00:27;;;;;;;22.15;12.75;;;;;;;4.12;55.96;96052.41;5137883;23;20028;-71
2021/03/03 04:02:29;;;;;;;23.25;13.50;;;;;;;4.16;55.53;96051.31;5111272;23;20484;-71
2021/03/03 04:04:30;;;;;;;24.92;13.38;;;;;;;4.22;55.83;96048.38;5138104;23;20107;-71
2021/03/03 04:06:31;;;;;;;25.20;13.60;;;;;;;4.19;55.83;96051.94;5112268;23;20237;-71
2021/03/03 04:08:32;;;;;;;21.25;12.05;;;;;;;4.22;55.44;96050.97;5139418;23;20021;-69
2021/03/03 04:10:34;;;;;;;20.08;12.35;;;;;;;4.22;55.35;96044.00;5137982;23;20055;-72
2021/03/03 04:12:35;;;;;;;21.00;12.63;;;;;;;4.27;55.16;96051.53;5138648;23;20031;-71
2021/03/03 04:14:37;;;;;;;19.80;11.50;;;;;;;4.26;55.60;96042.09;5139196;23;20029;-72
2021/03/03 04:16:38;;;;;;;20.00;11.93;;;;;;;4.30;54.76;96051.34;5085704;23;20363;-71
2021/03/03 04:18:40;;;;;;;18.42;11.90;;;;;;;4.29;55.25;96052.28;5139390;23;20103;-70
2021/03/03 04:20:41;;;;;;;22.20;11.85;;;;;;;4.08;55.87;96055.16;5139130;23;20020;-70
2021/03/03 04:22:43;;;;;;;20.70;12.35;;;;;;;3.83;56.54;96057.44;5112336;23;20112;-71
2021/03/03 04:24:45;;;;;;;20.17;12.27;;;;;;;3.57;57.38;96059.72;5138409;23;20024;-70
2021/03/03 04:26:46;;;;;;;22.02;12.07;;;;;;;3.23;58.36;96061.50;5138514;23;20020;-70
2021/03/03 04:28:47;;;;;;;20.50;11.57;;;;;;;3.12;58.79;96065.56;5138813;23;20092;-69
2021/03/03 04:30:48;;;;;;;20.15;12.35;;;;;;;3.25;58.43;96072.63;5139725;23;20024;-83
2021/03/03 04:32:50;;;;;;;19.23;10.77;;;;;;;3.06;58.64;96072.75;5116108;23;20032;-85
2021/03/03 04:34:51;;;;;;;16.15;11.05;;;;;;;2.99;58.65;96075.72;5091523;23;20038;-85
2021/03/03 04:36:52;;;;;;;25.10;11.45;;;;;;;3.06;58.77;96075.34;5142850;23;20025;-83
2021/03/03 04:38:54;;;;;;;22.88;11.65;;;;;;;3.20;58.20;96077.19;5142620;23;20481;-85
2021/03/03 04:40:55;;;;;;;17.20;11.48;;;;;;;3.22;57.76;96083.13;5146300;23;20021;-83
2021/03/03 04:42:56;;;;;;;19.25;11.23;;;;;;;3.18;57.94;96079.03;5095474;23;20277;-83
2021/03/03 04:44:57;;;;;;;21.67;11.50;;;;;;;3.36;57.44;96084.19;5126122;23;20104;-85
2021/03/03 04:46:58;;;;;;;19.65;11.07;;;;;;;3.50;57.12;96076.50;5128390;23;20325;-84
2021/03/03 04:49:00;;;;;;;23.42;11.88;;;;;;;3.62;56.45;96070.66;5143012;23;20039;-85
2021/03/03 04:51:01;;;;;;;18.25;12.02;;;;;;;3.68;56.62;96075.50;5142455;23;20372;-85
2021/03/03 04:53:03;;;;;;;17.65;11.35;;;;;;;3.74;56.50;96081.28;5142765;23;20024;-83
2021/03/03 04:55:05;;;;;;;20.23;11.82;;;;;;;3.61;56.77;96076.75;5115852;23;20021;-86
2021/03/03 04:57:06;;;;;;;21.08;11.77;;;;;;;3.72;56.33;96081.34;5116105;23;20017;-84
2021/03/03 04:59:08;;;;;;;21.77;10.60;;;;;;;3.80;56.03;96076.59;5142717;23;20331;-85
2021/03/03 05:01:09;;;;;;;22.48;12.43;;;;;;;3.90;56.30;96076.94;5142739;23;20096;-84
2021/03/03 05:03:12;;;;;;;22.15;12.82;;;;;;;3.91;56.21;96078.59;5143346;23;20029;-83
2021/03/03 05:05:14;;;;;;;22.55;14.23;;;;;;;3.95;56.52;96082.69;5142793;23;20027;-85
2021/03/03 05:07:15;;;;;;;18.90;13.30;;;;;;;3.97;56.56;96077.44;5117158;23;20024;-83
2021/03/03 05:09:16;;;;;;;26.00;14.73;;;;;;;4.02;56.22;96081.44;5117110;23;20032;-83
2021/03/03 05:11:18;;;;;;;24.45;13.88;;;;;;;3.92;57.09;96082.88;5144041;23;20102;-84
2021/03/03 05:13:19;;;;;;;21.20;14.05;;;;;;;3.95;56.96;96085.28;5117737;23;20401;-85
2021/03/03 05:15:20;;;;;;;29.80;14.43;;;;;;;3.99;57.60;96091.16;5116813;23;20624;-87
2021/03/03 05:17:22;;;;;;;24.48;14.63;;;;;;;3.90;57.91;96088.13;5142873;23;20136;-84
2021/03/03 05:19:23;;;;;;;25.00;14.65;;;;;;;3.90;58.29;96082.94;5143020;23;20021;-83
2021/03/03 05:21:24;;;;;;;26.20;13.93;;;;;;;3.93;58.98;96084.53;5135880;23;20355;-83
2021/03/03 05:23:32;;;;;;;24.48;14.07;;;;;;;4.08;58.43;96088.88;5092479;23;20026;-83
2021/03/03 05:25:34;;;;;;;22.92;14.10;;;;;;;4.08;58.71;96085.44;5118034;23;20021;-85
2021/03/03 05:27:35;;;;;;;24.95;15.00;;;;;;;4.17;58.85;96078.91;5092199;23;20021;-82
2021/03/03 05:29:36;;;;;;;24.75;14.32;;;;;;;4.23;59.14;96081.16;5094311;23;20033;-86
2021/03/03 05:31:38;;;;;;;22.38;14.32;;;;;;;4.28;59.35;96076.53;5069298;23;20072;-84
2021/03/03 05:33:42;;;;;;;25.40;14.77;;;;;;;4.36;59.64;96082.13;5070085;23;20379;-84
2021/03/03 05:35:43;;;;;;;24.73;14.65;;;;;;;4.45;59.58;96072.97;5129031;23;20025;-84
2021/03/03 05:37:44;;;;;;;25.45;14.60;;;;;;;4.50;58.99;96082.19;5125772;23;20025;-83
2021/03/03 05:39:47;;;;;;;22.83;14.65;;;;;;;4.56;59.24;96091.41;5069381;23;20022;-85
2021/03/03 05:41:48;;;;;;;25.75;15.35;;;;;;;4.65;59.03;96088.25;5119197;23;20107;-84
2021/03/03 05:43:49;;;;;;;25.70;15.15;;;;;;;4.75;58.39;96092.91;5118998;23;20025;-86
2021/03/03 05:45:51;;;;;;;25.83;15.35;;;;;;;4.74;58.21;96094.69;5093062;23;20025;-86
2021/03/03 05:47:53;;;;;;;24.90;15.25;;;;;;;4.77;58.43;96091.06;5069962;23;20060;-86
2021/03/03 05:49:58;;;;;;;28.00;15.07;;;;;;;4.86;58.03;96081.00;5093580;23;20100;-84
2021/03/03 05:51:59;;;;;;;31.33;15.93;;;;;;;4.85;58.58;96088.84;5094053;23;20032;-87
2021/03/03 05:54:02;;;;;;;24.80;14.70;;;;;;;4.83;58.58;96093.31;5093118;23;20024;-88
2021/03/03 05:56:05;;;;;;;25.75;15.98;;;;;;;4.86;58.29;96088.78;5094701;23;20053;-84
2021/03/03 05:58:09;;;;;;;27.58;15.77;;;;;;;5.03;57.95;96082.56;5120196;23;20450;-85
2021/03/03 06:00:10;;;;;;;24.15;16.00;;;;;;;4.93;58.29;96081.47;5101454;23;20072;-85
2021/03/03 06:02:14;;;;;;;25.00;16.70;;;;;;;5.01;57.64;96083.59;5106833;23;20044;-84
2021/03/03 06:04:15;;;;;;;26.90;15.52;;;;;;;4.96;58.06;96077.84;5119863;23;20487;-84
2021/03/03 06:06:17;;;;;;;25.35;15.98;;;;;;;5.04;57.90;96073.03;5118956;23;20096;-86
2021/03/03 06:08:20;;;;;;;25.85;15.82;;;;;;;5.20;57.51;96075.53;5093378;23;20025;-83
2021/03/03 06:10:21;;;;;;;26.85;16.15;;;;;;;5.04;58.45;96086.84;5118999;23;20025;-85
2021/03/03 06:12:22;;;;;;;23.00;14.70;;;;;;;5.18;57.60;96087.78;5120374;23;20033;-85
2021/03/03 06:14:24;;;;;;;23.65;15.52;;;;;;;5.18;57.55;96083.41;5120117;23;20025;-88
2021/03/03 06:16:25;;;;;;;23.65;15.38;;;;;;;5.17;57.75;96089.53;5122177;23;20032;-86
2021/03/03 06:18:27;;;;;;;25.63;15.27;;;;;;;5.22;57.67;96084.91;5123955;23;20354;-88
2021/03/03 06:20:28;;;;;;;25.42;15.73;;;;;;;5.36;57.56;96088.44;5099999;23;20021;-83
2021/03/03 06:22:29;;;;;;;26.02;15.23;;;;;;;5.23;57.29;96094.38;5115215;23;20028;-85
2021/03/03 06:24:34;;;;;;;24.83;15.18;;;;;;;5.24;57.35;96090.84;5117453;23;20025;-88
2021/03/03 06:26:53;;;;;;;23.65;15.98;;;;;;;5.20;57.60;96089.34;5117326;23;20021;-84
2021/03/03 06:28:54;;;;;;;29.95;17.13;;;;;;;4.78;59.34;96095.34;5118204;23;20032;-85
2021/03/03 06:30:56;;;;;;;27.75;15.48;;;;;;;4.51;60.34;96099.41;5116803;23;20028;-87
2021/03/03 06:33:08;;;;;;;30.48;17.75;;;;;;;4.10;61.88;96100.00;5143089;23;20078;-86
2021/03/03 06:35:10;;;;;;;40.15;19.27;;;;;;;4.20;61.90;96102.09;5118293;23;20084;-85
2021/03/03 06:37:12;;;;;;;31.90;18.77;;;;;;;4.09;61.76;96100.94;5143380;23;20024;-85
2021/03/03 06:39:17;;;;;;;32.83;18.27;;;;;;;4.05;62.42;96096.81;5143545;23;20349;-86
2021/03/03 06:41:18;;;;;;;30.27;18.38;;;;;;;4.06;62.39;96093.28;5143854;23;20027;-86
2021/03/03 06:43:22;;;;;;;33.47;16.95;;;;;;;4.31;61.69;96100.56;5144320;23;20021;-86
2021/03/03 06:45:31;;;;;;;31.55;18.40;;;;;;;4.44;61.46;96098.09;5144680;23;20032;-86
2021/03/03 06:47:32;;;;;;;34.50;17.35;;;;;;;4.56;60.54;96085.34;5144958;23;20024;-86
2021/03/03 06:49:34;;;;;;;28.70;15.50;;;;;;;4.66;60.35;96096.88;5144890;23;20094;-86
2021/03/03 06:51:35;;;;;;;31.02;17.15;;;;;;;4.79;59.95;96099.59;5143886;23;20042;-86
2021/03/03 06:53:36;;;;;;;32.47;17.20;;;;;;;4.75;59.76;96096.34;5144403;23;20458;-85
2021/03/03 06:55:45;;;;;;;28.50;16.50;;;;;;;5.03;59.44;96097.31;5117486;23;20035;-86
2021/03/03 06:57:46;;;;;;;27.92;16.83;;;;;;;5.21;58.27;96093.63;5092877;23;20022;-86
2021/03/03 06:59:48;;;;;;;23.00;15.02;;;;;;;5.43;57.78;96097.53;5125259;23;20025;-87
2021/03/03 07:01:50;;;;;;;24.65;15.20;;;;;;;5.29;58.48;96101.81;5148139;23;20036;-85
2021/03/03 07:03:51;;;;;;;26.83;16.20;;;;;;;5.28;58.38;96094.94;5147050;23;20084;-85
2021/03/03 07:05:53;;;;;;;23.88;15.23;;;;;;;5.58;57.52;96091.41;5146597;23;20028;-85
2021/03/03 07:08:01;;;;;;;23.77;14.95;;;;;;;5.64;57.18;96092.78;5121331;23;20089;-85
2021/03/03 07:10:03;;;;;;;26.13;15.40;;;;;;;5.74;56.86;96086.94;5122806;23;20040;-83
2021/03/03 07:12:07;;;;;;;26.38;15.95;;;;;;;5.68;57.03;96097.72;5149096;23;20402;-85
2021/03/03 07:14:18;;;;;;;22.60;13.90;;;;;;;5.75;56.90;96092.97;5124444;23;20029;-85
2021/03/03 07:16:20;;;;;;;25.63;15.45;;;;;;;6.01;56.15;96088.75;5118270;23;20018;-71
2021/03/03 07:18:39;;;;;;;25.15;14.88;;;;;;;5.87;56.31;96092.19;5141339;23;20075;-70
2021/03/03 07:20:46;;;;;;;26.92;15.13;;;;;;;6.12;55.75;96077.66;5112814;23;20028;-73
2021/03/03 07:22:49;;;;;;;23.15;14.73;;;;;;;6.30;55.78;96089.50;5138911;23;20032;-72
2021/03/03 07:24:52;;;;;;;24.15;15.10;;;;;;;6.30;55.34;96083.44;5088157;23;20029;-71
2021/03/03 07:26:53;;;;;;;24.27;15.57;;;;;;;6.25;55.58;96088.13;5138953;23;20020;-73
2021/03/03 07:28:55;;;;;;;26.55;16.08;;;;;;;6.13;56.11;96087.97;5139855;23;20771;-72
2021/03/03 07:30:58;;;;;;;25.65;15.23;;;;;;;5.72;57.14;96091.38;5137994;23;20031;-74
2021/03/03 07:33:01;;;;;;;24.05;15.48;;;;;;;5.72;57.39;96083.59;5112298;23;20021;-71
2021/03/03 07:35:09;;;;;;;25.08;15.93;;;;;;;5.91;57.09;96077.22;5121463;23;20080;-85
2021/03/03 07:37:10;;;;;;;24.42;15.27;;;;;;;6.12;56.46;96080.25;5131777;23;20021;-85
2021/03/03 07:39:12;;;;;;;23.48;14.95;;;;;;;6.26;55.85;96075.03;5138049;23;20012;-85
2021/03/03 07:41:14;;;;;;;27.13;15.98;;;;;;;6.43;55.33;96076.53;5109465;23;20081;-72
2021/03/03 07:43:16;;;;;;;25.55;15.75;;;;;;;6.13;56.64;96074.97;5139708;23;20020;-71
2021/03/03 07:45:18;;;;;;;23.30;15.23;;;;;;;6.13;56.20;96074.97;5111929;23;20028;-72
2021/03/03 07:47:23;;;;;;;21.13;14.82;;;;;;;5.81;57.17;96073.53;5112387;23;20109;-70
2021/03/03 07:49:26;;;;;;;22.65;15.57;;;;;;;6.08;56.49;96069.22;5138422;23;20059;-70
2021/03/03 07:51:29;;;;;;;26.83;15.75;;;;;;;6.34;56.94;96070.13;5112915;23;20047;-71
2021/03/03 07:53:39;;;;;;;25.08;15.75;;;;;;;6.47;55.96;96066.75;5088020;23;20126;-73
2021/03/03 07:55:41;;;;;;;29.25;16.15;;;;;;;6.18;56.13;96072.06;5112607;23;20029;-71
2021/03/03 07:57:50;;;;;;;23.75;16.10;;;;;;;6.03;57.14;96060.88;5138814;23;20031;-71
2021/03/03 07:59:52;;;;;;;22.98;14.80;;;;;;;6.12;56.65;96070.69;5088724;23;20130;-72
2021/03/03 08:01:54;;;;;;;23.65;15.25;;;;;;;6.13;56.88;96061.97;5137788;23;20024;-70
2021/03/03 08:03:56;;;;;;;23.58;14.45;;;;;;;6.25;56.83;96064.69;5139263;23;20025;-72
2021/03/03 08:05:58;;;;;;;26.50;15.05;;;;;;;6.30;56.84;96067.84;5138717;23;20025;-71
2021/03/03 08:08:24;;;;;;;25.20;14.90;;;;;;;6.63;55.98;96071.78;5112570;23;20626;-70
2021/03/03 08:10:26;;;;;;;24.45;16.33;;;;;;;6.98;54.92;96067.66;5112579;23;20025;-73
2021/03/03 08:12:27;;;;;;;23.13;14.95;;;;;;;7.23;54.10;96066.00;5139018;23;20458;-73
2021/03/03 08:14:34;;;;;;;27.38;15.20;;;;;;;7.49;53.54;96060.78;5139043;23;20024;-71
2021/03/03 08:16:55;;;;;;;24.45;15.43;;;;;;;7.15;53.99;96071.72;5118366;23;20257;-72
2021/03/03 08:18:58;;;;;;;24.77;15.45;;;;;;;7.05;54.50;96067.25;5112820;23;20035;-72
2021/03/03 08:21:22;;;;;;;24.08;16.20;;;;;;;7.19;54.56;96072.34;5113178;23;20510;-72
2021/03/03 08:23:32;;;;;;;35.80;19.58;;;;;;;7.42;53.39;96057.75;5138830;23;20021;-72
2021/03/03 08:25:47;;;;;;;29.92;16.52;;;;;;;7.16;54.05;96065.59;5139610;23;20401;-70
2021/03/03 08:27:48;;;;;;;26.73;16.52;;;;;;;6.98;54.54;96065.03;5137941;23;20028;-72
2021/03/03 08:30:10;;;;;;;53.30;24.77;;;;;;;7.17;54.10;96066.41;5138994;23;20024;-71
2021/03/03 08:32:22;;;;;;;30.23;16.73;;;;;;;7.22;54.13;96058.28;5136964;23;20066;-72
2021/03/03 08:34:24;;;;;;;37.83;23.25;;;;;;;7.45;53.74;96059.31;5111490;23;20079;-72
2021/03/03 08:36:26;;;;;;;40.58;25.65;;;;;;;7.80;52.67;96049.00;5138019;23;20021;-70
2021/03/03 08:38:28;;;;;;;34.90;18.40;;;;;;;7.80;52.33;96049.81;5139064;23;20025;-74
2021/03/03 08:40:38;;;;;;;25.15;15.63;;;;;;;8.06;51.59;96048.91;5138034;23;20047;-73
2021/03/03 08:42:40;;;;;;;28.77;17.27;;;;;;;7.87;51.94;96045.03;5139377;23;20039;-73
2021/03/03 08:44:58;;;;;;;27.17;16.80;;;;;;;7.76;51.94;96048.38;5139195;23;20025;-73
2021/03/03 08:46:59;;;;;;;27.02;16.70;;;;;;;7.79;51.75;96040.34;5109772;23;20020;-71
2021/03/03 08:49:01;;;;;;;24.20;14.90;;;;;;;7.86;51.51;96045.13;5139154;23;20096;-71
2021/03/03 08:51:20;;;;;;;24.63;15.32;;;;;;;7.84;51.87;96042.63;5138138;23;20032;-72
2021/03/03 08:53:26;;;;;;;24.70;15.40;;;;;;;8.14;51.49;96041.38;5138692;23;20024;-71
2021/03/03 08:55:30;;;;;;;25.45;15.27;;;;;;;8.54;50.92;96028.88;5113116;23;20475;-71
2021/03/03 08:57:33;;;;;;;28.48;17.67;;;;;;;8.13;50.83;96045.75;5137615;23;20023;-72
2021/03/03 08:59:42;;;;;;;29.02;16.23;;;;;;;8.03;50.72;96039.53;5112177;23;20304;-73
2021/03/03 09:01:51;;;;;;;28.63;16.15;;;;;;;8.39;50.28;96033.41;5087075;23;20025;-72
2021/03/03 09:04:01;;;;;;;24.23;16.15;;;;;;;8.60;49.95;96036.25;5137928;23;20091;-73
2021/03/03 09:06:09;;;;;;;26.88;14.65;;;;;;;8.81;49.72;96027.75;5112424;23;20029;-72
2021/03/03 09:08:21;;;;;;;25.35;16.17;;;;;;;8.77;49.41;96034.16;5112810;23;20076;-73
2021/03/03 09:10:22;;;;;;;21.38;15.18;;;;;;;8.81;49.72;96038.19;5139150;23;20044;-70
2021/03/03 09:12:25;;;;;;;22.83;14.75;;;;;;;8.13;50.87;96027.50;5137413;23;20028;-87
2021/03/03 09:14:27;;;;;;;24.50;15.13;;;;;;;8.59;49.94;96034.56;5144120;23;20029;-86
2021/03/03 09:16:28;;;;;;;18.98;13.63;;;;;;;8.31;50.45;96027.91;5091540;23;20018;-88
2021/03/03 09:18:30;;;;;;;23.15;14.85;;;;;;;8.25;50.56;96030.16;5144908;23;20044;-85
2021/03/03 09:20:31;;;;;;;24.38;15.02;;;;;;;8.65;50.30;96037.66;5146369;23;20059;-85
2021/03/03 09:22:37;;;;;;;23.38;14.40;;;;;;;8.54;49.33;96039.31;5143949;23;20369;-86
2021/03/03 09:24:39;;;;;;;23.75;14.05;;;;;;;8.30;50.47;96038.47;5143177;23;20350;-85
2021/03/03 09:26:43;;;;;;;23.02;15.80;;;;;;;8.61;49.53;96039.69;5117673;23;20402;-87
2021/03/03 09:28:44;;;;;;;22.30;14.55;;;;;;;8.96;48.53;96026.59;5117958;23;20028;-85
2021/03/03 09:30:45;;;;;;;20.17;13.88;;;;;;;9.24;47.76;96034.94;5116826;23;20025;-87
2021/03/03 09:32:48;;;;;;;23.38;14.25;;;;;;;9.10;47.12;96037.75;5116483;23;20032;-86
2021/03/03 09:34:52;;;;;;;18.17;13.02;;;;;;;8.94;47.57;96032.88;5116599;23;20116;-85